sensor_id;sensor_type;location;lat;lon;timestamp;temperature;humidity
35746;DHT22;21870;42.812;74.628;2023-02-01T00:00:48;4.40;99.90
35746;DHT22;21870;42.812;74.628;2023-02-01T00:03:17;4.40;99.90
35746;DHT22;21870;42.812;74.628;2023-02-01T00:05:44;4.40;99.90
35746;DHT22;21870;42.812;74.628;2023-02-01T00:08:10;4.40;99.90
35746;DHT22;21870;42.812;74.628;2023-02-01T00:10:36;4.40;99.90
35746;DHT22;21870;42.812;74.628;2023-02-01T00:13:02;4.40;99.90
35746;DHT22;21870;42.812;74.628;2023-02-01T00:15:28;4.20;99.90
35746;DHT22;21870;42.812;74.628;2023-02-01T00:17:55;4.10;99.90
35746;DHT22;21870;42.812;74.628;2023-02-01T00:20:21;4.00;99.90
35746;DHT22;21870;42.812;74.628;2023-02-01T00:22:47;4.00;99.90
35746;DHT22;21870;42.812;74.628;2023-02-01T00:25:13;4.00;99.90
35746;DHT22;21870;42.812;74.628;2023-02-01T00:27:39;3.90;99.90
35746;DHT22;21870;42.812;74.628;2023-02-01T00:30:06;3.90;99.90
35746;DHT22;21870;42.812;74.628;2023-02-01T00:32:32;4.00;99.90
35746;DHT22;21870;42.812;74.628;2023-02-01T00:34:58;4.00;99.90
35746;DHT22;21870;42.812;74.628;2023-02-01T00:37:24;4.00;99.90
35746;DHT22;21870;42.812;74.628;2023-02-01T00:39:50;4.10;99.90
35746;DHT22;21870;42.812;74.628;2023-02-01T00:42:17;4.00;99.90
35746;DHT22;21870;42.812;74.628;2023-02-01T00:44:43;4.00;99.90
35746;DHT22;21870;42.812;74.628;2023-02-01T00:47:09;4.00;99.90
35746;DHT22;21870;42.812;74.628;2023-02-01T00:49:35;3.90;99.90
35746;DHT22;21870;42.812;74.628;2023-02-01T00:52:01;4.00;99.90
35746;DHT22;21870;42.812;74.628;2023-02-01T00:54:27;4.00;99.90
35746;DHT22;21870;42.812;74.628;2023-02-01T00:56:53;4.00;99.90
35746;DHT22;21870;42.812;74.628;2023-02-01T00:59:19;4.00;99.90
35746;DHT22;21870;42.812;74.628;2023-02-01T01:01:45;4.00;99.90
35746;DHT22;21870;42.812;74.628;2023-02-01T01:04:11;3.90;99.90
35746;DHT22;21870;42.812;74.628;2023-02-01T01:06:37;3.70;99.90
35746;DHT22;21870;42.812;74.628;2023-02-01T01:09:05;3.50;99.90
35746;DHT22;21870;42.812;74.628;2023-02-01T01:11:35;3.30;99.90
35746;DHT22;21870;42.812;74.628;2023-02-01T01:14:01;3.20;99.90
35746;DHT22;21870;42.812;74.628;2023-02-01T01:16:30;3.20;99.90
35746;DHT22;21870;42.812;74.628;2023-02-01T01:18:57;3.00;99.90
35746;DHT22;21870;42.812;74.628;2023-02-01T01:21:23;3.00;99.90
35746;DHT22;21870;42.812;74.628;2023-02-01T01:23:49;2.90;99.90
35746;DHT22;21870;42.812;74.628;2023-02-01T01:26:21;2.80;99.90
35746;DHT22;21870;42.812;74.628;2023-02-01T01:28:48;2.80;99.90
35746;DHT22;21870;42.812;74.628;2023-02-01T01:31:15;2.80;99.90
35746;DHT22;21870;42.812;74.628;2023-02-01T01:33:42;2.60;99.90
35746;DHT22;21870;42.812;74.628;2023-02-01T01:36:10;2.80;99.90
35746;DHT22;21870;42.812;74.628;2023-02-01T01:38:38;2.60;99.90
35746;DHT22;21870;42.812;74.628;2023-02-01T01:41:04;2.80;99.90
35746;DHT22;21870;42.812;74.628;2023-02-01T01:43:53;2.80;99.90
35746;DHT22;21870;42.812;74.628;2023-02-01T01:46:24;2.70;99.90
35746;DHT22;21870;42.812;74.628;2023-02-01T01:48:56;2.70;99.90
35746;DHT22;21870;42.812;74.628;2023-02-01T01:51:26;2.80;99.90
35746;DHT22;21870;42.812;74.628;2023-02-01T01:54:21;3.00;99.90
35746;DHT22;21870;42.812;74.628;2023-02-01T01:56:55;3.10;99.90
35746;DHT22;21870;42.812;74.628;2023-02-01T01:59:23;3.00;99.90
35746;DHT22;21870;42.812;74.628;2023-02-01T02:01:51;3.10;99.90
35746;DHT22;21870;42.812;74.628;2023-02-01T02:04:18;3.20;99.90
35746;DHT22;21870;42.812;74.628;2023-02-01T02:06:56;3.20;99.90
35746;DHT22;21870;42.812;74.628;2023-02-01T02:09:25;3.20;99.90
35746;DHT22;21870;42.812;74.628;2023-02-01T02:11:51;3.20;99.90
35746;DHT22;21870;42.812;74.628;2023-02-01T02:14:18;3.30;99.90
35746;DHT22;21870;42.812;74.628;2023-02-01T02:23:23;3.20;99.90
35746;DHT22;21870;42.812;74.628;2023-02-01T02:29:05;3.00;99.90
35746;DHT22;21870;42.812;74.628;2023-02-01T02:32:15;2.90;99.90
35746;DHT22;21870;42.812;74.628;2023-02-01T02:40:33;2.90;99.90
35746;DHT22;21870;42.812;74.628;2023-02-01T02:46:40;2.80;99.90
35746;DHT22;21870;42.812;74.628;2023-02-01T02:49:41;2.80;99.90
35746;DHT22;21870;42.812;74.628;2023-02-01T02:52:15;2.90;99.90
35746;DHT22;21870;42.812;74.628;2023-02-01T02:55:03;3.00;99.90
35746;DHT22;21870;42.812;74.628;2023-02-01T02:57:39;3.10;99.90
35746;DHT22;21870;42.812;74.628;2023-02-01T03:00:29;3.20;99.90
35746;DHT22;21870;42.812;74.628;2023-02-01T03:03:15;3.40;99.90
35746;DHT22;21870;42.812;74.628;2023-02-01T03:05:59;3.50;99.90
35746;DHT22;21870;42.812;74.628;2023-02-01T03:08:27;3.60;99.90
35746;DHT22;21870;42.812;74.628;2023-02-01T03:19:33;4.00;99.90
35746;DHT22;21870;42.812;74.628;2023-02-01T03:22:14;4.30;99.90
35746;DHT22;21870;42.812;74.628;2023-02-01T03:24:50;4.40;99.90
35746;DHT22;21870;42.812;74.628;2023-02-01T03:27:40;4.70;99.90
35746;DHT22;21870;42.812;74.628;2023-02-01T03:30:20;4.90;99.90
35746;DHT22;21870;42.812;74.628;2023-02-01T03:32:49;5.20;99.90
35746;DHT22;21870;42.812;74.628;2023-02-01T03:35:32;5.40;99.90
35746;DHT22;21870;42.812;74.628;2023-02-01T03:38:30;5.70;99.90
35746;DHT22;21870;42.812;74.628;2023-02-01T03:41:03;5.90;99.90
35746;DHT22;21870;42.812;74.628;2023-02-01T03:43:42;6.10;99.90
35746;DHT22;21870;42.812;74.628;2023-02-01T03:46:14;6.30;99.90
35746;DHT22;21870;42.812;74.628;2023-02-01T03:48:44;6.60;99.90
35746;DHT22;21870;42.812;74.628;2023-02-01T03:51:11;6.80;99.90
35746;DHT22;21870;42.812;74.628;2023-02-01T03:53:39;7.00;99.90
35746;DHT22;21870;42.812;74.628;2023-02-01T03:56:06;7.10;99.90
35746;DHT22;21870;42.812;74.628;2023-02-01T03:58:34;7.30;99.90
35746;DHT22;21870;42.812;74.628;2023-02-01T04:01:01;7.60;99.90
35746;DHT22;21870;42.812;74.628;2023-02-01T04:03:27;7.80;99.90
35746;DHT22;21870;42.812;74.628;2023-02-01T04:05:54;8.00;99.90
35746;DHT22;21870;42.812;74.628;2023-02-01T04:08:21;8.20;99.90
35746;DHT22;21870;42.812;74.628;2023-02-01T04:10:48;8.40;99.90
35746;DHT22;21870;42.812;74.628;2023-02-01T04:13:14;8.60;99.90
35746;DHT22;21870;42.812;74.628;2023-02-01T04:15:40;8.60;99.90
35746;DHT22;21870;42.812;74.628;2023-02-01T04:18:06;8.80;99.70
35746;DHT22;21870;42.812;74.628;2023-02-01T04:20:32;8.90;99.10
35746;DHT22;21870;42.812;74.628;2023-02-01T04:22:58;9.10;99.60
35746;DHT22;21870;42.812;74.628;2023-02-01T04:25:25;9.20;99.40
35746;DHT22;21870;42.812;74.628;2023-02-01T04:27:51;9.40;99.10
35746;DHT22;21870;42.812;74.628;2023-02-01T04:30:17;9.60;98.40
35746;DHT22;21870;42.812;74.628;2023-02-01T04:32:43;9.90;97.50
35746;DHT22;21870;42.812;74.628;2023-02-01T04:35:09;10.10;97.90
35746;DHT22;21870;42.812;74.628;2023-02-01T04:37:37;10.30;97.10
35746;DHT22;21870;42.812;74.628;2023-02-01T04:40:03;10.30;95.60
35746;DHT22;21870;42.812;74.628;2023-02-01T04:42:29;10.70;95.50
35746;DHT22;21870;42.812;74.628;2023-02-01T04:44:55;10.70;95.40
35746;DHT22;21870;42.812;74.628;2023-02-01T04:47:22;11.00;95.80
35746;DHT22;21870;42.812;74.628;2023-02-01T04:49:48;11.00;95.20
35746;DHT22;21870;42.812;74.628;2023-02-01T04:52:14;11.00;94.00
35746;DHT22;21870;42.812;74.628;2023-02-01T04:54:40;11.10;93.60
35746;DHT22;21870;42.812;74.628;2023-02-01T04:57:06;11.20;93.20
35746;DHT22;21870;42.812;74.628;2023-02-01T04:59:40;11.40;93.70
35746;DHT22;21870;42.812;74.628;2023-02-01T05:02:06;11.40;93.80
35746;DHT22;21870;42.812;74.628;2023-02-01T05:04:32;11.60;93.20
35746;DHT22;21870;42.812;74.628;2023-02-01T05:06:58;11.50;93.00
35746;DHT22;21870;42.812;74.628;2023-02-01T05:09:31;11.70;93.50
35746;DHT22;21870;42.812;74.628;2023-02-01T05:11:57;11.90;92.20
35746;DHT22;21870;42.812;74.628;2023-02-01T05:14:42;12.10;91.70
35746;DHT22;21870;42.812;74.628;2023-02-01T05:17:08;12.30;91.50
35746;DHT22;21870;42.812;74.628;2023-02-01T05:19:34;12.40;92.10
35746;DHT22;21870;42.812;74.628;2023-02-01T05:22:00;12.70;90.70
35746;DHT22;21870;42.812;74.628;2023-02-01T05:24:26;12.70;90.60
35746;DHT22;21870;42.812;74.628;2023-02-01T05:26:52;12.60;89.80
35746;DHT22;21870;42.812;74.628;2023-02-01T05:29:19;12.70;90.00
35746;DHT22;21870;42.812;74.628;2023-02-01T05:31:45;13.00;90.00
35746;DHT22;21870;42.812;74.628;2023-02-01T05:34:12;13.20;87.50
35746;DHT22;21870;42.812;74.628;2023-02-01T05:36:38;13.40;86.90
35746;DHT22;21870;42.812;74.628;2023-02-01T05:39:04;13.60;85.40
35746;DHT22;21870;42.812;74.628;2023-02-01T05:41:30;13.60;85.80
35746;DHT22;21870;42.812;74.628;2023-02-01T05:43:56;13.70;85.70
35746;DHT22;21870;42.812;74.628;2023-02-01T05:46:30;13.60;85.70
35746;DHT22;21870;42.812;74.628;2023-02-01T05:48:56;13.70;85.90
35746;DHT22;21870;42.812;74.628;2023-02-01T05:51:22;13.90;88.20
35746;DHT22;21870;42.812;74.628;2023-02-01T05:53:48;14.10;87.50
35746;DHT22;21870;42.812;74.628;2023-02-01T05:56:14;14.00;86.40
35746;DHT22;21870;42.812;74.628;2023-02-01T05:58:40;14.00;86.40
35746;DHT22;21870;42.812;74.628;2023-02-01T06:01:06;14.00;85.30
35746;DHT22;21870;42.812;74.628;2023-02-01T06:03:33;14.00;85.30
35746;DHT22;21870;42.812;74.628;2023-02-01T06:06:01;14.20;83.90
35746;DHT22;21870;42.812;74.628;2023-02-01T06:08:27;14.00;83.60
35746;DHT22;21870;42.812;74.628;2023-02-01T06:11:01;13.90;83.90
35746;DHT22;21870;42.812;74.628;2023-02-01T06:13:28;14.10;84.90
35746;DHT22;21870;42.812;74.628;2023-02-01T06:15:54;14.30;84.40
35746;DHT22;21870;42.812;74.628;2023-02-01T06:18:21;14.50;84.30
35746;DHT22;21870;42.812;74.628;2023-02-01T06:20:53;14.50;83.30
35746;DHT22;21870;42.812;74.628;2023-02-01T06:23:19;14.50;83.80
35746;DHT22;21870;42.812;74.628;2023-02-01T06:25:53;14.40;83.10
35746;DHT22;21870;42.812;74.628;2023-02-01T06:28:25;14.80;84.00
35746;DHT22;21870;42.812;74.628;2023-02-01T06:31:02;15.10;81.90
35746;DHT22;21870;42.812;74.628;2023-02-01T06:33:28;15.00;81.20
35746;DHT22;21870;42.812;74.628;2023-02-01T06:36:02;15.10;82.10
35746;DHT22;21870;42.812;74.628;2023-02-01T06:38:29;15.20;81.40
35746;DHT22;21870;42.812;74.628;2023-02-01T06:40:57;15.20;81.70
35746;DHT22;21870;42.812;74.628;2023-02-01T06:43:24;15.20;82.40
35746;DHT22;21870;42.812;74.628;2023-02-01T06:45:51;14.90;81.80
35746;DHT22;21870;42.812;74.628;2023-02-01T06:48:18;14.90;82.70
35746;DHT22;21870;42.812;74.628;2023-02-01T06:50:44;14.80;82.40
35746;DHT22;21870;42.812;74.628;2023-02-01T06:53:10;14.70;81.90
35746;DHT22;21870;42.812;74.628;2023-02-01T06:55:36;14.60;83.10
35746;DHT22;21870;42.812;74.628;2023-02-01T06:58:03;14.60;82.90
35746;DHT22;21870;42.812;74.628;2023-02-01T07:00:29;14.70;82.70
35746;DHT22;21870;42.812;74.628;2023-02-01T07:02:57;15.10;81.90
35746;DHT22;21870;42.812;74.628;2023-02-01T07:05:24;15.10;80.00
35746;DHT22;21870;42.812;74.628;2023-02-01T07:07:51;15.10;79.70
35746;DHT22;21870;42.812;74.628;2023-02-01T07:10:19;15.10;78.20
35746;DHT22;21870;42.812;74.628;2023-02-01T07:12:48;15.30;78.20
35746;DHT22;21870;42.812;74.628;2023-02-01T07:15:14;15.50;78.50
35746;DHT22;21870;42.812;74.628;2023-02-01T07:17:40;15.60;79.00
35746;DHT22;21870;42.812;74.628;2023-02-01T07:20:10;15.80;79.20
35746;DHT22;21870;42.812;74.628;2023-02-01T07:22:36;16.10;80.90
35746;DHT22;21870;42.812;74.628;2023-02-01T07:25:02;16.30;77.40
35746;DHT22;21870;42.812;74.628;2023-02-01T07:27:29;16.30;77.10
35746;DHT22;21870;42.812;74.628;2023-02-01T07:29:55;16.30;77.40
35746;DHT22;21870;42.812;74.628;2023-02-01T07:32:24;16.30;77.60
35746;DHT22;21870;42.812;74.628;2023-02-01T07:34:50;16.00;78.40
35746;DHT22;21870;42.812;74.628;2023-02-01T07:37:16;16.00;78.20
35746;DHT22;21870;42.812;74.628;2023-02-01T07:39:42;16.40;78.10
35746;DHT22;21870;42.812;74.628;2023-02-01T07:42:08;16.10;77.00
35746;DHT22;21870;42.812;74.628;2023-02-01T07:44:34;16.20;77.40
35746;DHT22;21870;42.812;74.628;2023-02-01T07:47:01;16.70;78.20
35746;DHT22;21870;42.812;74.628;2023-02-01T07:49:27;16.60;78.50
35746;DHT22;21870;42.812;74.628;2023-02-01T07:51:53;16.40;80.70
35746;DHT22;21870;42.812;74.628;2023-02-01T07:54:19;16.30;81.90
35746;DHT22;21870;42.812;74.628;2023-02-01T07:56:45;16.30;83.60
35746;DHT22;21870;42.812;74.628;2023-02-01T07:59:11;16.30;85.90
35746;DHT22;21870;42.812;74.628;2023-02-01T08:01:37;16.50;85.50
35746;DHT22;21870;42.812;74.628;2023-02-01T08:04:04;16.30;84.80
35746;DHT22;21870;42.812;74.628;2023-02-01T08:06:32;16.00;85.10
35746;DHT22;21870;42.812;74.628;2023-02-01T08:08:59;15.80;86.80
35746;DHT22;21870;42.812;74.628;2023-02-01T08:11:26;15.40;87.10
35746;DHT22;21870;42.812;74.628;2023-02-01T08:13:52;15.50;87.40
35746;DHT22;21870;42.812;74.628;2023-02-01T08:16:19;15.60;86.80
35746;DHT22;21870;42.812;74.628;2023-02-01T08:18:46;15.30;86.10
35746;DHT22;21870;42.812;74.628;2023-02-01T08:21:23;15.50;86.70
35746;DHT22;21870;42.812;74.628;2023-02-01T08:23:50;15.80;85.90
35746;DHT22;21870;42.812;74.628;2023-02-01T08:26:23;16.20;84.40
35746;DHT22;21870;42.812;74.628;2023-02-01T08:28:53;16.10;82.70
35746;DHT22;21870;42.812;74.628;2023-02-01T08:31:21;16.30;80.70
35746;DHT22;21870;42.812;74.628;2023-02-01T08:33:51;15.90;79.20
35746;DHT22;21870;42.812;74.628;2023-02-01T08:36:20;16.10;78.60
35746;DHT22;21870;42.812;74.628;2023-02-01T08:38:46;16.20;79.30
35746;DHT22;21870;42.812;74.628;2023-02-01T08:41:16;16.40;81.10
35746;DHT22;21870;42.812;74.628;2023-02-01T08:43:43;16.40;79.60
35746;DHT22;21870;42.812;74.628;2023-02-01T08:46:10;16.30;81.10
35746;DHT22;21870;42.812;74.628;2023-02-01T08:48:37;16.50;80.20
35746;DHT22;21870;42.812;74.628;2023-02-01T08:51:05;16.80;80.60
35746;DHT22;21870;42.812;74.628;2023-02-01T08:53:33;16.80;79.70
35746;DHT22;21870;42.812;74.628;2023-02-01T08:56:00;17.20;80.50
35746;DHT22;21870;42.812;74.628;2023-02-01T08:58:26;17.10;79.40
35746;DHT22;21870;42.812;74.628;2023-02-01T09:00:52;17.30;80.50
35746;DHT22;21870;42.812;74.628;2023-02-01T09:03:19;17.10;79.10
35746;DHT22;21870;42.812;74.628;2023-02-01T09:05:45;17.20;80.40
35746;DHT22;21870;42.812;74.628;2023-02-01T09:08:12;17.20;78.40
35746;DHT22;21870;42.812;74.628;2023-02-01T09:10:41;17.10;77.40
35746;DHT22;21870;42.812;74.628;2023-02-01T09:13:08;17.30;78.60
35746;DHT22;21870;42.812;74.628;2023-02-01T09:15:35;17.30;78.80
35746;DHT22;21870;42.812;74.628;2023-02-01T09:18:02;17.30;77.70
35746;DHT22;21870;42.812;74.628;2023-02-01T09:20:30;17.40;78.20
35746;DHT22;21870;42.812;74.628;2023-02-01T09:22:57;17.50;78.90
35746;DHT22;21870;42.812;74.628;2023-02-01T09:25:23;17.60;81.00
35746;DHT22;21870;42.812;74.628;2023-02-01T09:27:49;17.60;77.90
35746;DHT22;21870;42.812;74.628;2023-02-01T09:30:16;17.60;78.40
35746;DHT22;21870;42.812;74.628;2023-02-01T09:32:42;17.60;80.10
35746;DHT22;21870;42.812;74.628;2023-02-01T09:35:08;17.60;83.10
35746;DHT22;21870;42.812;74.628;2023-02-01T09:37:34;17.50;84.10
35746;DHT22;21870;42.812;74.628;2023-02-01T09:40:01;17.40;83.90
35746;DHT22;21870;42.812;74.628;2023-02-01T09:47:46;17.30;82.90
35746;DHT22;21870;42.812;74.628;2023-02-01T09:50:55;17.20;84.90
35746;DHT22;21870;42.812;74.628;2023-02-01T09:53:24;17.20;84.30
35746;DHT22;21870;42.812;74.628;2023-02-01T09:55:54;17.20;84.40
35746;DHT22;21870;42.812;74.628;2023-02-01T09:58:42;17.30;88.50
35746;DHT22;21870;42.812;74.628;2023-02-01T10:01:21;17.10;89.10
35746;DHT22;21870;42.812;74.628;2023-02-01T10:03:55;16.80;90.30
35746;DHT22;21870;42.812;74.628;2023-02-01T10:20:07;16.40;91.50
35746;DHT22;21870;42.812;74.628;2023-02-01T10:22:45;16.30;91.50
35746;DHT22;21870;42.812;74.628;2023-02-01T10:28:00;16.00;91.80
35746;DHT22;21870;42.812;74.628;2023-02-01T10:30:41;15.90;92.40
35746;DHT22;21870;42.812;74.628;2023-02-01T10:33:26;15.70;92.50
35746;DHT22;21870;42.812;74.628;2023-02-01T10:36:16;15.70;92.70
35746;DHT22;21870;42.812;74.628;2023-02-01T10:38:45;15.70;93.30
35746;DHT22;21870;42.812;74.628;2023-02-01T10:41:18;15.60;92.80
35746;DHT22;21870;42.812;74.628;2023-02-01T10:43:48;15.50;93.30
35746;DHT22;21870;42.812;74.628;2023-02-01T10:46:16;15.40;93.20
35746;DHT22;21870;42.812;74.628;2023-02-01T10:48:43;15.20;93.50
35746;DHT22;21870;42.812;74.628;2023-02-01T10:54:14;14.90;93.70
35746;DHT22;21870;42.812;74.628;2023-02-01T10:56:44;14.80;94.30
35746;DHT22;21870;42.812;74.628;2023-02-01T10:59:23;14.60;94.90
35746;DHT22;21870;42.812;74.628;2023-02-01T11:01:50;14.30;95.20
35746;DHT22;21870;42.812;74.628;2023-02-01T11:04:24;14.10;95.70
35746;DHT22;21870;42.812;74.628;2023-02-01T11:07:19;13.90;95.90
35746;DHT22;21870;42.812;74.628;2023-02-01T11:09:51;13.50;95.90
35746;DHT22;21870;42.812;74.628;2023-02-01T11:12:36;13.20;96.70
35746;DHT22;21870;42.812;74.628;2023-02-01T11:15:19;12.90;97.90
35746;DHT22;21870;42.812;74.628;2023-02-01T11:17:47;12.80;99.60
35746;DHT22;21870;42.812;74.628;2023-02-01T11:20:32;12.50;99.90
35746;DHT22;21870;42.812;74.628;2023-02-01T11:23:02;12.20;99.90
35746;DHT22;21870;42.812;74.628;2023-02-01T11:25:30;12.00;99.90
35746;DHT22;21870;42.812;74.628;2023-02-01T11:27:58;11.80;99.90
35746;DHT22;21870;42.812;74.628;2023-02-01T11:30:36;11.60;99.90
35746;DHT22;21870;42.812;74.628;2023-02-01T11:33:05;11.50;99.90
35746;DHT22;21870;42.812;74.628;2023-02-01T11:35:36;11.40;99.90
35746;DHT22;21870;42.812;74.628;2023-02-01T11:38:17;11.20;99.90
35746;DHT22;21870;42.812;74.628;2023-02-01T11:40:45;11.10;99.90
35746;DHT22;21870;42.812;74.628;2023-02-01T11:43:28;11.00;99.90
35746;DHT22;21870;42.812;74.628;2023-02-01T11:45:57;10.90;99.90
35746;DHT22;21870;42.812;74.628;2023-02-01T11:48:28;10.80;99.90
35746;DHT22;21870;42.812;74.628;2023-02-01T11:51:33;10.70;99.90
35746;DHT22;21870;42.812;74.628;2023-02-01T12:06:31;10.00;99.90
35746;DHT22;21870;42.812;74.628;2023-02-01T12:22:52;9.30;99.90
35746;DHT22;21870;42.812;74.628;2023-02-01T12:25:20;9.20;99.90
35746;DHT22;21870;42.812;74.628;2023-02-01T12:33:18;8.80;99.90
35746;DHT22;21870;42.812;74.628;2023-02-01T12:36:08;8.70;99.90
35746;DHT22;21870;42.812;74.628;2023-02-01T12:42:07;8.60;99.90
35746;DHT22;21870;42.812;74.628;2023-02-01T12:52:53;8.20;99.90
35746;DHT22;21870;42.812;74.628;2023-02-01T12:55:44;8.20;99.90
35746;DHT22;21870;42.812;74.628;2023-02-01T13:00:44;7.90;99.90
35746;DHT22;21870;42.812;74.628;2023-02-01T13:06:15;7.70;99.90
35746;DHT22;21870;42.812;74.628;2023-02-01T13:08:51;7.60;99.90
35746;DHT22;21870;42.812;74.628;2023-02-01T13:11:42;7.20;99.90
35746;DHT22;21870;42.812;74.628;2023-02-01T13:14:24;7.30;99.90
35746;DHT22;21870;42.812;74.628;2023-02-01T13:16:56;7.40;99.90
35746;DHT22;21870;42.812;74.628;2023-02-01T13:22:51;7.40;99.90
35746;DHT22;21870;42.812;74.628;2023-02-01T13:25:11;7.40;99.90
35746;DHT22;21870;42.812;74.628;2023-02-01T13:27:38;7.40;99.90
35746;DHT22;21870;42.812;74.628;2023-02-01T13:32:59;7.30;99.90
35746;DHT22;21870;42.812;74.628;2023-02-01T13:41:30;7.10;99.90
35746;DHT22;21870;42.812;74.628;2023-02-01T13:44:15;7.10;99.90
35746;DHT22;21870;42.812;74.628;2023-02-01T13:46:45;7.00;99.90
35746;DHT22;21870;42.812;74.628;2023-02-01T13:49:27;7.10;99.90
35746;DHT22;21870;42.812;74.628;2023-02-01T13:51:56;7.00;99.90
35746;DHT22;21870;42.812;74.628;2023-02-01T13:54:37;7.00;99.90
35746;DHT22;21870;42.812;74.628;2023-02-01T13:57:06;7.00;99.90
35746;DHT22;21870;42.812;74.628;2023-02-01T14:05:56;6.70;99.90
35746;DHT22;21870;42.812;74.628;2023-02-01T14:10:55;6.70;99.90
35746;DHT22;21870;42.812;74.628;2023-02-01T14:37:22;6.10;99.90
35746;DHT22;21870;42.812;74.628;2023-02-01T14:40:02;6.00;99.90
35746;DHT22;21870;42.812;74.628;2023-02-01T14:47:49;5.80;99.90
35746;DHT22;21870;42.812;74.628;2023-02-01T15:01:29;5.60;99.90
35746;DHT22;21870;42.812;74.628;2023-02-01T15:04:00;5.80;99.90
35746;DHT22;21870;42.812;74.628;2023-02-01T15:06:46;5.80;99.90
35746;DHT22;21870;42.812;74.628;2023-02-01T15:09:43;5.90;99.90
35746;DHT22;21870;42.812;74.628;2023-02-01T15:15:12;6.10;99.90
35746;DHT22;21870;42.812;74.628;2023-02-01T15:17:42;6.10;99.90
35746;DHT22;21870;42.812;74.628;2023-02-01T15:20:19;5.90;99.90
35746;DHT22;21870;42.812;74.628;2023-02-01T15:23:26;5.80;99.90
35746;DHT22;21870;42.812;74.628;2023-02-01T15:25:46;5.80;99.90
35746;DHT22;21870;42.812;74.628;2023-02-01T15:28:14;5.80;99.90
35746;DHT22;21870;42.812;74.628;2023-02-01T15:30:56;5.80;99.90
35746;DHT22;21870;42.812;74.628;2023-02-01T15:33:26;5.90;99.90
35746;DHT22;21870;42.812;74.628;2023-02-01T15:38:34;5.90;99.90
35746;DHT22;21870;42.812;74.628;2023-02-01T15:46:39;6.00;99.90
35746;DHT22;21870;42.812;74.628;2023-02-01T15:51:45;6.10;99.90
35746;DHT22;21870;42.812;74.628;2023-02-01T15:54:23;6.10;99.90
35746;DHT22;21870;42.812;74.628;2023-02-01T15:56:54;6.20;99.90
35746;DHT22;21870;42.812;74.628;2023-02-01T15:59:28;6.20;99.90
35746;DHT22;21870;42.812;74.628;2023-02-01T16:01:55;6.20;99.90
35746;DHT22;21870;42.812;74.628;2023-02-01T16:04:23;6.20;99.90
35746;DHT22;21870;42.812;74.628;2023-02-01T16:06:55;6.20;99.90
35746;DHT22;21870;42.812;74.628;2023-02-01T16:09:24;6.30;99.90
35746;DHT22;21870;42.812;74.628;2023-02-01T16:11:58;6.30;99.90
35746;DHT22;21870;42.812;74.628;2023-02-01T16:14:26;6.30;99.90
35746;DHT22;21870;42.812;74.628;2023-02-01T16:16:54;6.50;99.90
35746;DHT22;21870;42.812;74.628;2023-02-01T16:19:20;6.60;99.90
35746;DHT22;21870;42.812;74.628;2023-02-01T16:21:47;6.70;99.90
35746;DHT22;21870;42.812;74.628;2023-02-01T16:24:14;6.70;99.90
35746;DHT22;21870;42.812;74.628;2023-02-01T16:26:40;6.70;99.90
35746;DHT22;21870;42.812;74.628;2023-02-01T16:29:06;6.70;99.90
35746;DHT22;21870;42.812;74.628;2023-02-01T16:31:38;6.70;99.90
35746;DHT22;21870;42.812;74.628;2023-02-01T16:34:05;6.80;99.90
35746;DHT22;21870;42.812;74.628;2023-02-01T16:36:33;6.70;99.90
35746;DHT22;21870;42.812;74.628;2023-02-01T16:38:59;6.80;99.90
35746;DHT22;21870;42.812;74.628;2023-02-01T16:41:26;6.80;99.90
35746;DHT22;21870;42.812;74.628;2023-02-01T16:43:54;6.70;99.90
35746;DHT22;21870;42.812;74.628;2023-02-01T16:46:24;6.80;99.90
35746;DHT22;21870;42.812;74.628;2023-02-01T16:49:00;6.70;99.90
35746;DHT22;21870;42.812;74.628;2023-02-01T16:51:30;6.70;99.90
35746;DHT22;21870;42.812;74.628;2023-02-01T16:53:59;6.60;99.90
35746;DHT22;21870;42.812;74.628;2023-02-01T16:56:30;6.60;99.90
35746;DHT22;21870;42.812;74.628;2023-02-01T16:58:56;6.60;99.90
35746;DHT22;21870;42.812;74.628;2023-02-01T17:01:23;6.50;99.90
35746;DHT22;21870;42.812;74.628;2023-02-01T17:03:49;6.50;99.90
35746;DHT22;21870;42.812;74.628;2023-02-01T17:06:19;6.50;99.90
35746;DHT22;21870;42.812;74.628;2023-02-01T17:08:54;6.50;99.90
35746;DHT22;21870;42.812;74.628;2023-02-01T17:11:21;6.50;99.90
35746;DHT22;21870;42.812;74.628;2023-02-01T17:13:47;6.50;99.90
35746;DHT22;21870;42.812;74.628;2023-02-01T17:16:23;6.50;99.90
35746;DHT22;21870;42.812;74.628;2023-02-01T17:18:59;6.40;99.90
35746;DHT22;21870;42.812;74.628;2023-02-01T17:21:29;6.40;99.90
35746;DHT22;21870;42.812;74.628;2023-02-01T17:23:57;6.40;99.90
35746;DHT22;21870;42.812;74.628;2023-02-01T17:26:25;6.50;99.90
35746;DHT22;21870;42.812;74.628;2023-02-01T17:28:51;6.50;99.90
35746;DHT22;21870;42.812;74.628;2023-02-01T17:31:17;6.50;99.90
35746;DHT22;21870;42.812;74.628;2023-02-01T17:33:44;6.40;99.90
35746;DHT22;21870;42.812;74.628;2023-02-01T17:36:16;6.40;99.90
35746;DHT22;21870;42.812;74.628;2023-02-01T17:38:43;6.40;99.90
35746;DHT22;21870;42.812;74.628;2023-02-01T17:41:10;6.40;99.90
35746;DHT22;21870;42.812;74.628;2023-02-01T17:43:37;6.40;99.90
35746;DHT22;21870;42.812;74.628;2023-02-01T17:46:09;6.40;99.90
35746;DHT22;21870;42.812;74.628;2023-02-01T17:48:37;6.40;99.90
35746;DHT22;21870;42.812;74.628;2023-02-01T17:51:04;6.40;99.90
35746;DHT22;21870;42.812;74.628;2023-02-01T17:53:31;6.40;99.90
35746;DHT22;21870;42.812;74.628;2023-02-01T17:56:00;6.40;99.90
35746;DHT22;21870;42.812;74.628;2023-02-01T17:58:26;6.40;99.90
35746;DHT22;21870;42.812;74.628;2023-02-01T18:00:55;6.40;99.90
35746;DHT22;21870;42.812;74.628;2023-02-01T18:03:25;6.40;99.90
35746;DHT22;21870;42.812;74.628;2023-02-01T18:05:54;6.40;99.90
35746;DHT22;21870;42.812;74.628;2023-02-01T18:08:25;6.40;99.90
35746;DHT22;21870;42.812;74.628;2023-02-01T18:10:59;6.50;99.90
35746;DHT22;21870;42.812;74.628;2023-02-01T18:13:30;6.60;99.90
35746;DHT22;21870;42.812;74.628;2023-02-01T18:16:00;6.60;99.90
35746;DHT22;21870;42.812;74.628;2023-02-01T18:18:29;6.50;99.90
35746;DHT22;21870;42.812;74.628;2023-02-01T18:20:58;6.50;99.90
35746;DHT22;21870;42.812;74.628;2023-02-01T18:23:24;6.50;99.90
35746;DHT22;21870;42.812;74.628;2023-02-01T18:25:52;6.30;99.90
35746;DHT22;21870;42.812;74.628;2023-02-01T18:28:19;6.30;99.90
35746;DHT22;21870;42.812;74.628;2023-02-01T18:30:47;6.30;99.90
35746;DHT22;21870;42.812;74.628;2023-02-01T18:33:18;6.10;99.90
35746;DHT22;21870;42.812;74.628;2023-02-01T18:35:45;6.20;99.90
35746;DHT22;21870;42.812;74.628;2023-02-01T18:38:12;6.10;99.90
35746;DHT22;21870;42.812;74.628;2023-02-01T18:40:53;6.10;99.90